createdAt,value
2022-11-29T00:01:03.048Z,6.42
2022-11-29T00:03:30.868Z,6.42
2022-11-29T00:06:04.478Z,6.28
2022-11-29T00:08:32.097Z,6.04
2022-11-29T00:11:05.702Z,6.17
2022-11-29T00:13:33.307Z,6.19
2022-11-29T00:16:05.596Z,6.50
2022-11-29T00:18:33.305Z,6.54
2022-11-29T00:21:01.275Z,6.14
2022-11-29T00:23:28.910Z,6.30
2022-11-29T00:25:56.470Z,6.11
2022-11-29T00:28:25.420Z,6.14
2022-11-29T00:30:53.318Z,5.98
2022-11-29T00:33:20.954Z,6.43
2022-11-29T00:35:48.571Z,6.45
2022-11-29T00:38:16.184Z,6.22
2022-11-29T00:40:43.829Z,6.14
2022-11-29T00:43:11.406Z,6.26
2022-11-29T00:45:40.407Z,6.43
2022-11-29T00:48:08.491Z,6.34
2022-11-29T00:50:36.100Z,6.00
2022-11-29T00:53:03.772Z,6.24
2022-11-29T00:55:31.367Z,5.96
2022-11-29T00:57:58.954Z,6.26
2022-11-29T01:00:26.541Z,6.21
2022-11-29T01:02:55.496Z,5.86
2022-11-29T01:05:23.121Z,5.61
2022-11-29T01:07:50.776Z,5.62
2022-11-29T01:10:18.538Z,5.84
2022-11-29T01:12:46.205Z,5.51
2022-11-29T01:15:14.216Z,5.31
2022-11-29T01:17:41.969Z,5.64
2022-11-29T01:20:13.457Z,5.47
2022-11-29T01:22:41.284Z,5.48
2022-11-29T01:25:11.629Z,5.63
2022-11-29T01:27:39.294Z,5.71
2022-11-29T01:30:09.552Z,5.60
2022-11-29T01:32:37.513Z,5.68
2022-11-29T01:35:06.821Z,5.87
2022-11-29T01:37:35.842Z,6.06
2022-11-29T01:40:03.453Z,6.10
2022-11-29T01:42:31.059Z,5.88
2022-11-29T01:45:21.902Z,5.82
2022-11-29T01:47:52.420Z,5.56
2022-11-29T01:50:20.521Z,5.98
2022-11-29T01:52:49.923Z,5.49
2022-11-29T01:55:19.387Z,5.85
2022-11-29T01:57:47.720Z,5.95
2022-11-29T02:00:19.516Z,5.75
2022-11-29T02:02:52.945Z,5.69
2022-11-29T02:05:21.662Z,5.63
2022-11-29T02:07:54.078Z,5.53
2022-11-29T02:10:27.065Z,5.51
2022-11-29T02:13:02.683Z,6.09
2022-11-29T02:15:39.944Z,5.64
2022-11-29T02:18:11.422Z,5.80
2022-11-29T02:21:13.057Z,5.70
2022-11-29T02:24:12.241Z,5.72
2022-11-29T02:27:08.984Z,5.61
2022-11-29T02:30:02.520Z,5.46
2022-11-29T02:33:07.630Z,5.40
2022-11-29T02:35:55.544Z,5.39
2022-11-29T02:38:42.150Z,5.44
2022-11-29T02:41:28.287Z,5.78
2022-11-29T02:44:34.212Z,5.72
2022-11-29T02:47:14.336Z,5.48
2022-11-29T02:50:00.533Z,5.38
2022-11-29T02:52:46.150Z,5.76
2022-11-29T02:55:19.167Z,5.22
2022-11-29T02:57:56.273Z,5.46
2022-11-29T03:00:24.901Z,5.70
2022-11-29T03:03:01.867Z,5.71
2022-11-29T03:05:41.145Z,5.75
2022-11-29T03:08:17.559Z,5.42
2022-11-29T03:10:56.670Z,5.60
2022-11-29T03:13:35.481Z,5.56
2022-11-29T03:16:12.180Z,5.49
2022-11-29T03:18:51.698Z,5.83
2022-11-29T03:21:33.361Z,5.80
2022-11-29T03:24:06.416Z,5.85
2022-11-29T03:26:39.508Z,5.53
2022-11-29T03:29:12.008Z,5.52
2022-11-29T03:31:45.502Z,5.72
2022-11-29T03:34:20.910Z,5.84
2022-11-29T03:36:57.124Z,5.80
2022-11-29T03:39:31.285Z,5.38
2022-11-29T03:42:04.402Z,5.59
2022-11-29T03:44:40.798Z,5.52
2022-11-29T03:47:13.663Z,5.33
2022-11-29T03:49:48.436Z,5.57
2022-11-29T03:52:22.390Z,5.76
2022-11-29T03:54:58.073Z,6.31
2022-11-29T03:57:32.534Z,6.09
2022-11-29T04:00:06.549Z,5.53
2022-11-29T04:03:16.832Z,5.67
2022-11-29T04:06:12.119Z,5.58
2022-11-29T04:09:19.580Z,5.55
2022-11-29T04:12:06.879Z,5.80
2022-11-29T04:15:15.713Z,5.44
2022-11-29T04:18:07.210Z,5.70
2022-11-29T04:20:50.970Z,6.21
2022-11-29T04:23:46.517Z,5.80
2022-11-29T04:26:54.734Z,5.98
2022-11-29T04:29:40.319Z,5.83
2022-11-29T04:32:27.399Z,5.60
2022-11-29T04:35:10.697Z,5.41
2022-11-29T04:38:06.101Z,5.71
2022-11-29T04:40:49.541Z,5.55
2022-11-29T04:43:38.503Z,5.47
2022-11-29T04:46:23.676Z,5.52
2022-11-29T04:49:11.987Z,5.80
2022-11-29T04:52:03.084Z,5.65
2022-11-29T04:54:37.244Z,5.34
2022-11-29T04:57:10.415Z,5.79
2022-11-29T04:59:45.177Z,5.45
2022-11-29T05:02:26.505Z,5.59
2022-11-29T05:05:00.479Z,5.41
2022-11-29T05:07:34.230Z,5.91
2022-11-29T05:10:07.899Z,5.85
2022-11-29T05:12:43.962Z,5.56
2022-11-29T05:15:36.201Z,5.67
2022-11-29T05:18:14.475Z,5.61
2022-11-29T05:20:47.918Z,6.15
2022-11-29T05:23:37.918Z,5.84
2022-11-29T05:26:11.703Z,6.00
2022-11-29T05:28:51.495Z,5.73
2022-11-29T05:31:51.561Z,5.20
2022-11-29T05:34:38.614Z,5.74
2022-11-29T05:37:19.464Z,6.44
2022-11-29T05:40:04.527Z,5.68
2022-11-29T05:43:06.109Z,6.10
2022-11-29T05:45:40.017Z,5.94
2022-11-29T05:48:18.691Z,5.97
2022-11-29T05:50:50.445Z,5.91
2022-11-29T05:53:24.602Z,5.85
2022-11-29T05:56:02.172Z,5.57
2022-11-29T05:58:45.119Z,5.62
2022-11-29T06:01:21.760Z,5.88
2022-11-29T06:04:00.974Z,5.88
2022-11-29T06:06:36.428Z,6.19
2022-11-29T06:09:14.575Z,5.71
2022-11-29T06:11:46.373Z,6.06
2022-11-29T06:14:28.198Z,6.01
2022-11-29T06:17:10.980Z,6.22
2022-11-29T06:19:56.160Z,5.96
2022-11-29T06:22:59.170Z,5.50
2022-11-29T06:25:49.700Z,5.43
2022-11-29T06:28:33.383Z,5.49
2022-11-29T06:31:06.500Z,6.18
2022-11-29T06:33:41.515Z,5.70
2022-11-29T06:36:19.003Z,6.30
2022-11-29T06:38:46.960Z,5.45
2022-11-29T06:41:20.006Z,5.63
2022-11-29T06:43:48.667Z,6.12
2022-11-29T06:46:27.876Z,5.95
2022-11-29T06:49:06.944Z,5.50
2022-11-29T06:51:45.671Z,5.48
2022-11-29T06:54:28.034Z,5.94
2022-11-29T06:57:04.349Z,5.51
2022-11-29T06:59:42.790Z,5.51
2022-11-29T07:02:29.178Z,5.72
2022-11-29T07:05:13.969Z,5.79
2022-11-29T07:07:43.624Z,5.50
2022-11-29T07:10:17.990Z,5.31
2022-11-29T07:12:46.875Z,5.05
2022-11-29T07:15:16.422Z,5.64
2022-11-29T07:17:54.065Z,5.85
2022-11-29T07:20:30.988Z,5.56
2022-11-29T07:23:07.879Z,5.90
2022-11-29T07:25:44.031Z,5.39
2022-11-29T07:28:23.160Z,5.17
2022-11-29T07:31:00.106Z,5.27
2022-11-29T07:33:35.473Z,5.31
2022-11-29T07:36:10.859Z,5.45
2022-11-29T07:38:59.148Z,5.26
2022-11-29T07:41:31.800Z,5.41
2022-11-29T07:44:07.735Z,5.42
2022-11-29T07:46:35.555Z,5.46
2022-11-29T07:49:03.177Z,5.62
2022-11-29T07:51:32.166Z,5.96
2022-11-29T07:54:01.313Z,5.50
2022-11-29T07:56:29.129Z,6.27
2022-11-29T07:58:56.840Z,5.42
2022-11-29T08:01:24.582Z,5.87
2022-11-29T08:03:52.171Z,6.31
2022-11-29T08:06:25.644Z,5.48
2022-11-29T08:08:53.378Z,5.91
2022-11-29T08:11:22.306Z,5.97
2022-11-29T08:13:50.082Z,5.61
2022-11-29T08:16:18.641Z,5.20
2022-11-29T08:18:46.293Z,6.03
2022-11-29T08:21:17.893Z,5.36
2022-11-29T08:23:45.634Z,5.59
2022-11-29T08:26:13.759Z,6.03
2022-11-29T08:28:42.947Z,5.71
2022-11-29T08:31:13.571Z,5.42
2022-11-29T08:33:43.900Z,5.28
2022-11-29T08:36:13.672Z,5.85
2022-11-29T08:38:41.663Z,5.92
2022-11-29T08:41:11.890Z,5.99
2022-11-29T08:43:39.515Z,5.99
2022-11-29T08:46:11.312Z,6.48
2022-11-29T08:48:41.559Z,5.92
2022-11-29T08:51:09.152Z,5.78
2022-11-29T08:53:41.936Z,5.78
2022-11-29T08:56:41.827Z,5.76
2022-11-29T08:58:59.107Z,5.75
2022-11-29T09:01:29.270Z,6.07
2022-11-29T09:04:07.630Z,5.43
2022-11-29T09:06:39.692Z,5.83
2022-11-29T09:09:07.438Z,5.69
2022-11-29T09:11:36.732Z,5.62
2022-11-29T09:14:06.713Z,5.33
2022-11-29T09:16:38.231Z,5.48
2022-11-29T09:19:06.524Z,5.79
2022-11-29T09:21:36.710Z,5.59
2022-11-29T09:24:06.809Z,5.68
2022-11-29T09:26:37.833Z,6.06
2022-11-29T09:29:07.505Z,6.36
2022-11-29T09:31:36.567Z,5.73
2022-11-29T09:34:04.653Z,6.07
2022-11-29T09:36:32.394Z,6.08
2022-11-29T09:39:02.563Z,6.70
2022-11-29T09:41:51.404Z,5.83
2022-11-29T09:44:27.257Z,6.37
2022-11-29T09:47:02.247Z,6.38
2022-11-29T09:49:45.821Z,5.63
2022-11-29T09:52:23.171Z,6.18
2022-11-29T09:55:02.015Z,5.62
2022-11-29T09:57:32.253Z,5.73
2022-11-29T10:00:03.304Z,5.84
2022-11-29T10:02:38.914Z,5.59
2022-11-29T10:05:12.295Z,5.42
2022-11-29T10:07:44.055Z,6.03
2022-11-29T10:10:19.684Z,6.00
2022-11-29T10:12:51.619Z,5.78
2022-11-29T10:15:23.683Z,5.86
2022-11-29T10:17:56.671Z,5.69
2022-11-29T10:20:26.669Z,5.91
2022-11-29T10:22:58.594Z,6.09
2022-11-29T10:25:31.642Z,6.44
2022-11-29T10:27:59.588Z,6.31
2022-11-29T10:30:27.211Z,6.69
2022-11-29T10:33:01.461Z,6.62
2022-11-29T10:35:29.430Z,6.59
2022-11-29T10:40:55.514Z,5.83
2022-11-29T10:43:24.858Z,6.23
2022-11-29T10:45:56.181Z,5.69
2022-11-29T10:48:31.601Z,5.98
2022-11-29T10:50:59.733Z,6.19
2022-11-29T10:53:31.485Z,6.55
2022-11-29T10:56:03.120Z,6.03
2022-11-29T10:58:32.204Z,6.22
2022-11-29T11:01:02.024Z,6.06
2022-11-29T11:03:38.223Z,6.19
2022-11-29T11:06:10.699Z,6.13
2022-11-29T11:08:42.232Z,6.15
2022-11-29T11:11:10.964Z,6.30
2022-11-29T11:13:39.174Z,6.71
2022-11-29T11:16:20.985Z,6.78
2022-11-29T11:18:49.960Z,6.11
2022-11-29T11:21:21.366Z,6.79
2022-11-29T11:23:57.567Z,6.61
2022-11-29T11:26:27.979Z,6.39
2022-11-29T11:29:00.106Z,6.75
2022-11-29T11:31:30.623Z,6.14
2022-11-29T11:34:26.164Z,6.28
2022-11-29T11:36:54.144Z,6.39
2022-11-29T11:39:23.943Z,6.41
2022-11-29T11:42:10.642Z,6.24
2022-11-29T11:44:49.804Z,6.23
2022-11-29T11:47:20.657Z,6.27
2022-11-29T11:49:55.304Z,6.31
2022-11-29T11:52:25.650Z,6.03
2022-11-29T11:54:56.324Z,6.73
2022-11-29T11:57:25.947Z,7.02
2022-11-29T11:59:55.848Z,6.35
2022-11-29T12:02:29.751Z,6.69
2022-11-29T12:05:03.271Z,5.92
2022-11-29T12:08:05.994Z,6.32
2022-11-29T12:10:27.903Z,6.70
2022-11-29T12:12:58.183Z,6.61
2022-11-29T12:15:29.535Z,6.09
2022-11-29T12:18:02.779Z,6.28
2022-11-29T12:20:38.065Z,6.38
2022-11-29T12:23:24.552Z,6.29
2022-11-29T12:25:57.107Z,6.51
2022-11-29T12:28:29.367Z,6.95
2022-11-29T12:31:04.279Z,7.28
2022-11-29T12:33:43.283Z,7.26
2022-11-29T12:36:23.636Z,6.69
2022-11-29T12:39:12.494Z,7.37
2022-11-29T12:41:53.930Z,6.30
2022-11-29T12:44:33.392Z,6.72
2022-11-29T12:47:37.915Z,7.02
2022-11-29T12:50:05.902Z,6.24
2022-11-29T12:52:43.036Z,6.52
2022-11-29T12:55:20.915Z,6.81
2022-11-29T12:57:58.134Z,6.72
2022-11-29T13:00:29.943Z,6.76
2022-11-29T13:03:07.833Z,6.43
2022-11-29T13:05:45.091Z,6.23
2022-11-29T13:08:30.085Z,6.92
2022-11-29T13:11:06.939Z,6.46
2022-11-29T13:13:40.539Z,6.38
2022-11-29T13:16:23.935Z,6.62
2022-11-29T13:19:00.983Z,6.47
2022-11-29T13:21:35.745Z,6.57
2022-11-29T13:24:09.121Z,6.42
2022-11-29T13:26:39.128Z,7.10
2022-11-29T13:29:08.585Z,7.36
2022-11-29T13:31:37.672Z,6.84
2022-11-29T13:34:10.501Z,6.64
2022-11-29T13:36:46.888Z,7.08
2022-11-29T13:39:37.137Z,6.81
2022-11-29T13:42:09.343Z,6.44
2022-11-29T13:44:45.869Z,6.76
2022-11-29T13:47:15.404Z,6.93
2022-11-29T13:49:58.399Z,7.27
2022-11-29T13:52:37.141Z,7.33
2022-11-29T13:55:18.235Z,7.15
2022-11-29T13:58:14.961Z,6.53
2022-11-29T14:00:50.883Z,6.35
2022-11-29T14:03:35.644Z,6.34
2022-11-29T14:06:15.664Z,6.60
2022-11-29T14:09:21.179Z,6.33
2022-11-29T14:11:55.905Z,6.18
2022-11-29T14:14:29.289Z,6.46
2022-11-29T14:17:00.288Z,6.66
2022-11-29T14:19:33.345Z,6.63
2022-11-29T14:22:22.296Z,6.34
2022-11-29T14:25:49.946Z,6.38
2022-11-29T14:28:33.703Z,6.30
2022-11-29T14:31:02.416Z,5.87
2022-11-29T14:33:39.912Z,6.26
2022-11-29T14:36:31.109Z,6.35
2022-11-29T14:39:12.827Z,6.38
2022-11-29T14:41:55.267Z,6.34
2022-11-29T14:44:28.207Z,6.24
2022-11-29T14:47:04.973Z,6.18
2022-11-29T14:49:39.409Z,5.93
2022-11-29T14:52:18.642Z,6.02
2022-11-29T14:54:56.279Z,6.17
2022-11-29T14:57:56.264Z,6.03
2022-11-29T15:00:26.762Z,6.33
2022-11-29T15:02:58.248Z,6.40
2022-11-29T15:05:33.540Z,6.29
2022-11-29T15:08:09.453Z,6.14
2022-11-29T15:10:41.060Z,6.47
2022-11-29T15:13:12.946Z,6.65
2022-11-29T15:16:05.723Z,6.25
2022-11-29T15:18:59.911Z,5.78
2022-11-29T15:21:36.712Z,6.22
2022-11-29T15:24:11.693Z,6.82
2022-11-29T15:26:39.368Z,6.85
2022-11-29T15:29:13.819Z,6.64
2022-11-29T15:31:44.636Z,6.77
2022-11-29T15:34:21.754Z,6.85
2022-11-29T15:36:49.369Z,6.79
2022-11-29T15:39:29.244Z,6.59
2022-11-29T15:42:02.356Z,6.51
2022-11-29T15:44:32.557Z,6.14
2022-11-29T15:49:54.699Z,6.43
2022-11-29T15:52:29.823Z,6.96
2022-11-29T15:55:01.638Z,6.95
2022-11-29T15:57:34.507Z,6.69
2022-11-29T16:00:04.928Z,6.28
2022-11-29T16:02:35.002Z,6.56
2022-11-29T16:05:10.991Z,6.78
2022-11-29T16:07:40.495Z,6.62
2022-11-29T16:10:14.319Z,7.48
2022-11-29T16:12:53.291Z,6.50
2022-11-29T16:15:30.379Z,6.68
2022-11-29T16:18:04.161Z,6.82
2022-11-29T16:20:33.256Z,7.26
2022-11-29T16:23:11.218Z,6.29
2022-11-29T16:25:52.746Z,6.77
2022-11-29T16:28:20.711Z,6.44
2022-11-29T16:30:48.407Z,6.70
2022-11-29T16:33:23.141Z,6.22
2022-11-29T16:36:03.306Z,6.32
2022-11-29T16:38:30.954Z,6.38
2022-11-29T16:41:04.861Z,6.24
2022-11-29T16:43:53.654Z,6.71
2022-11-29T16:46:31.059Z,6.66
2022-11-29T16:49:02.423Z,6.83
2022-11-29T16:51:40.739Z,7.42
2022-11-29T16:54:23.906Z,7.07
2022-11-29T16:56:52.564Z,6.88
2022-11-29T16:59:27.346Z,7.14
2022-11-29T17:01:56.480Z,6.29
2022-11-29T17:04:25.218Z,6.51
2022-11-29T17:06:54.983Z,7.04
2022-11-29T17:09:25.648Z,6.29
2022-11-29T17:11:53.685Z,6.29
2022-11-29T17:14:21.329Z,6.28
2022-11-29T17:16:50.437Z,6.23
2022-11-29T17:19:18.275Z,6.28
2022-11-29T17:21:46.749Z,6.49
2022-11-29T17:24:18.614Z,6.35
2022-11-29T17:26:46.598Z,6.54
2022-11-29T17:29:15.429Z,6.49
2022-11-29T17:31:44.680Z,6.65
2022-11-29T17:34:13.061Z,6.79
2022-11-29T17:36:40.946Z,6.49
2022-11-29T17:39:09.364Z,6.37
2022-11-29T17:41:38.412Z,6.59
2022-11-29T17:44:06.272Z,6.60
2022-11-29T17:46:35.816Z,6.95
2022-11-29T17:49:05.397Z,6.84
2022-11-29T17:54:21.856Z,6.88
2022-11-29T17:56:50.819Z,6.93
2022-11-29T17:59:18.481Z,7.37
2022-11-29T18:01:47.879Z,6.80
2022-11-29T18:04:15.816Z,6.90
2022-11-29T18:06:43.552Z,6.51
2022-11-29T18:09:12.843Z,6.69
2022-11-29T18:11:48.230Z,6.41
2022-11-29T18:14:20.271Z,6.84
2022-11-29T18:16:48.000Z,6.44
2022-11-29T18:19:17.654Z,6.37
2022-11-29T18:21:45.629Z,6.56
2022-11-29T18:24:13.420Z,7.16
2022-11-29T18:26:41.739Z,6.09
2022-11-29T18:29:10.480Z,6.01
2022-11-29T18:31:41.577Z,6.49
2022-11-29T18:34:10.959Z,6.65
2022-11-29T18:36:42.739Z,6.75
2022-11-29T18:39:13.843Z,6.41
2022-11-29T18:41:43.527Z,6.96
2022-11-29T18:44:12.907Z,6.94
2022-11-29T18:46:43.941Z,6.83
2022-11-29T18:49:12.923Z,6.73
2022-11-29T18:51:42.718Z,6.89
2022-11-29T18:54:10.479Z,6.29
2022-11-29T18:56:38.496Z,6.34
2022-11-29T18:59:08.436Z,6.57
2022-11-29T19:01:40.636Z,6.19
2022-11-29T19:04:10.879Z,6.78
2022-11-29T19:06:39.869Z,6.48
2022-11-29T19:09:09.728Z,6.81
2022-11-29T19:11:37.414Z,6.37
2022-11-29T19:14:12.022Z,6.65
2022-11-29T19:16:41.345Z,6.61
2022-11-29T19:19:10.847Z,6.16
2022-11-29T19:21:39.678Z,6.20
2022-11-29T19:24:13.570Z,6.13
2022-11-29T19:26:43.073Z,6.16
2022-11-29T19:29:11.017Z,6.36
2022-11-29T19:31:39.301Z,6.40
2022-11-29T19:34:07.282Z,6.32
2022-11-29T19:36:37.304Z,6.87
2022-11-29T19:39:05.599Z,6.61
2022-11-29T19:41:35.169Z,6.22
2022-11-29T19:44:04.995Z,7.00
2022-11-29T19:46:34.828Z,6.70
2022-11-29T19:49:03.549Z,6.42
2022-11-29T19:51:31.677Z,6.72
2022-11-29T19:54:02.959Z,6.29
2022-11-29T19:56:32.274Z,5.98
2022-11-29T19:59:00.600Z,6.34
2022-11-29T20:01:39.326Z,6.80
2022-11-29T20:04:08.774Z,6.67
2022-11-29T20:06:36.570Z,7.18
2022-11-29T20:09:06.372Z,6.59
2022-11-29T20:11:34.061Z,6.45
2022-11-29T20:14:03.699Z,6.53
2022-11-29T20:16:32.449Z,6.63
2022-11-29T20:19:01.659Z,6.58
2022-11-29T20:21:31.415Z,6.62
2022-11-29T20:24:01.756Z,6.71
2022-11-29T20:26:32.677Z,6.07
2022-11-29T20:29:01.734Z,6.38
2022-11-29T20:31:29.491Z,6.62
2022-11-29T20:33:58.229Z,6.89
2022-11-29T20:36:40.447Z,7.19
2022-11-29T20:39:18.295Z,6.96
2022-11-29T20:42:00.315Z,6.51
2022-11-29T20:44:37.196Z,6.18
2022-11-29T20:47:13.452Z,7.12
2022-11-29T20:49:41.534Z,6.52
2022-11-29T20:52:15.403Z,6.85
2022-11-29T20:54:43.081Z,6.51
2022-11-29T20:57:12.186Z,6.77
2022-11-29T20:59:39.882Z,6.62
2022-11-29T21:02:07.650Z,6.39
2022-11-29T21:04:35.303Z,6.22
2022-11-29T21:07:02.925Z,6.49
2022-11-29T21:09:30.508Z,6.44
2022-11-29T21:11:58.724Z,6.69
2022-11-29T21:14:28.344Z,6.79
2022-11-29T21:16:56.566Z,7.11
2022-11-29T21:19:27.849Z,7.39
2022-11-29T21:22:06.823Z,6.96
2022-11-29T21:24:49.119Z,7.05
2022-11-29T21:27:23.656Z,6.39
2022-11-29T21:29:53.340Z,6.90
2022-11-29T21:32:24.050Z,6.79
2022-11-29T21:34:51.807Z,6.51
2022-11-29T21:37:21.551Z,6.68
2022-11-29T21:39:51.327Z,6.43
2022-11-29T21:42:19.253Z,6.70
2022-11-29T21:44:47.166Z,7.26
2022-11-29T21:47:16.330Z,6.83
2022-11-29T21:49:44.114Z,6.46
2022-11-29T21:52:11.704Z,6.66
2022-11-29T21:54:40.032Z,6.50
2022-11-29T21:57:07.641Z,7.15
2022-11-29T21:59:35.247Z,6.54
2022-11-29T22:02:03.051Z,6.46
2022-11-29T22:04:32.401Z,6.70
2022-11-29T22:06:59.974Z,6.63
2022-11-29T22:09:27.561Z,7.06
2022-11-29T22:11:55.185Z,6.79
2022-11-29T22:14:23.727Z,6.62
2022-11-29T22:16:53.490Z,6.50
2022-11-29T22:19:23.411Z,6.29
2022-11-29T22:21:53.967Z,6.34
2022-11-29T22:24:23.468Z,6.36
2022-11-29T22:26:52.290Z,6.77
2022-11-29T22:29:20.401Z,6.55
2022-11-29T22:31:50.693Z,6.82
2022-11-29T22:34:18.296Z,7.08
2022-11-29T22:36:46.177Z,6.78
2022-11-29T22:39:15.433Z,6.30
2022-11-29T22:41:43.232Z,6.59
2022-11-29T22:44:10.904Z,6.67
2022-11-29T22:46:41.039Z,6.54
2022-11-29T22:49:08.838Z,6.62
2022-11-29T22:51:37.899Z,6.52
2022-11-29T22:54:07.829Z,6.47
2022-11-29T22:56:40.300Z,7.35
2022-11-29T22:59:08.798Z,7.44
2022-11-29T23:01:38.360Z,7.27
2022-11-29T23:04:08.221Z,6.75
2022-11-29T23:06:37.882Z,6.36
2022-11-29T23:09:07.821Z,6.13
2022-11-29T23:11:37.180Z,6.45
2022-11-29T23:14:04.990Z,6.43
2022-11-29T23:16:32.823Z,6.29
2022-11-29T23:19:01.731Z,6.84
2022-11-29T23:21:31.051Z,6.52
2022-11-29T23:24:00.842Z,6.57
2022-11-29T23:26:30.281Z,6.92
2022-11-29T23:28:59.566Z,7.37
2022-11-29T23:31:27.230Z,7.01
2022-11-29T23:33:55.149Z,6.80
2022-11-29T23:36:22.762Z,6.66
2022-11-29T23:38:50.488Z,6.81
2022-11-29T23:41:18.331Z,6.79
2022-11-29T23:43:46.059Z,6.08
2022-11-29T23:46:16.674Z,6.51
2022-11-29T23:48:44.683Z,6.42
2022-11-29T23:51:13.027Z,6.40
2022-11-29T23:53:41.130Z,6.42
2022-11-29T23:56:12.059Z,6.41
2022-11-29T23:58:40.297Z,6.33
